sensor_id;sensor_type;location;lat;lon;timestamp;pressure;altitude;pressure_sealevel;temperature;humidity
58662;BME280;44432;49.786;22.760;2023-06-05T00:02:29;99861.38;;;10.20;70.77
58662;BME280;44432;49.786;22.760;2023-06-05T00:05:00;99862.79;;;10.19;71.11
58662;BME280;44432;49.786;22.760;2023-06-05T00:07:32;99861.54;;;10.15;71.08
58662;BME280;44432;49.786;22.760;2023-06-05T00:10:03;99861.04;;;10.13;71.25
58662;BME280;44432;49.786;22.760;2023-06-05T00:12:33;99858.33;;;10.08;71.33
58662;BME280;44432;49.786;22.760;2023-06-05T00:15:05;99860.46;;;10.05;71.39
58662;BME280;44432;49.786;22.760;2023-06-05T00:17:36;99857.77;;;10.01;71.45
58662;BME280;44432;49.786;22.760;2023-06-05T00:20:08;99859.48;;;9.96;71.67
58662;BME280;44432;49.786;22.760;2023-06-05T00:22:39;99859.41;;;9.92;71.71
58662;BME280;44432;49.786;22.760;2023-06-05T00:25:10;99857.61;;;9.89;71.88
58662;BME280;44432;49.786;22.760;2023-06-05T00:27:41;99857.51;;;9.85;71.95
58662;BME280;44432;49.786;22.760;2023-06-05T00:30:13;99862.11;;;9.82;71.96
58662;BME280;44432;49.786;22.760;2023-06-05T00:32:44;99859.13;;;9.78;72.08
58662;BME280;44432;49.786;22.760;2023-06-05T00:35:14;99859.55;;;9.76;72.13
58662;BME280;44432;49.786;22.760;2023-06-05T00:37:45;99861.27;;;9.72;72.24
58662;BME280;44432;49.786;22.760;2023-06-05T00:40:16;99858.20;;;9.68;72.36
58662;BME280;44432;49.786;22.760;2023-06-05T00:42:46;99860.48;;;9.64;72.35
58662;BME280;44432;49.786;22.760;2023-06-05T00:45:17;99861.43;;;9.61;72.55
58662;BME280;44432;49.786;22.760;2023-06-05T00:47:48;99860.52;;;9.59;72.53
58662;BME280;44432;49.786;22.760;2023-06-05T00:50:19;99859.77;;;9.55;72.56
58662;BME280;44432;49.786;22.760;2023-06-05T00:52:51;99861.82;;;9.52;72.86
58662;BME280;44432;49.786;22.760;2023-06-05T00:55:22;99860.55;;;9.51;72.98
58662;BME280;44432;49.786;22.760;2023-06-05T00:57:54;99860.41;;;9.48;73.05
58662;BME280;44432;49.786;22.760;2023-06-05T01:00:25;99859.09;;;9.46;73.32
58662;BME280;44432;49.786;22.760;2023-06-05T01:02:57;99857.45;;;9.44;73.50
58662;BME280;44432;49.786;22.760;2023-06-05T01:05:28;99859.50;;;9.41;73.76
58662;BME280;44432;49.786;22.760;2023-06-05T01:07:59;99857.85;;;9.38;73.61
58662;BME280;44432;49.786;22.760;2023-06-05T01:10:33;99860.54;;;9.35;73.62
58662;BME280;44432;49.786;22.760;2023-06-05T01:13:09;99857.58;;;9.32;73.97
58662;BME280;44432;49.786;22.760;2023-06-05T01:15:42;99856.11;;;9.30;73.90
58662;BME280;44432;49.786;22.760;2023-06-05T01:18:13;99862.02;;;9.27;73.71
58662;BME280;44432;49.786;22.760;2023-06-05T01:20:48;99854.69;;;9.25;73.78
58662;BME280;44432;49.786;22.760;2023-06-05T01:23:18;99855.45;;;9.24;74.00
58662;BME280;44432;49.786;22.760;2023-06-05T01:25:55;99855.02;;;9.21;74.08
58662;BME280;44432;49.786;22.760;2023-06-05T01:28:30;99854.20;;;9.20;74.09
58662;BME280;44432;49.786;22.760;2023-06-05T01:31:06;99851.15;;;9.14;74.21
58662;BME280;44432;49.786;22.760;2023-06-05T01:33:46;99856.34;;;9.13;74.49
58662;BME280;44432;49.786;22.760;2023-06-05T01:36:19;99854.23;;;9.11;74.28
58662;BME280;44432;49.786;22.760;2023-06-05T01:38:51;99860.36;;;9.07;74.38
58662;BME280;44432;49.786;22.760;2023-06-05T01:41:22;99857.05;;;9.04;74.78
58662;BME280;44432;49.786;22.760;2023-06-05T01:43:53;99861.42;;;8.99;74.88
58662;BME280;44432;49.786;22.760;2023-06-05T01:46:25;99862.65;;;8.97;74.91
58662;BME280;44432;49.786;22.760;2023-06-05T01:48:56;99866.15;;;8.94;74.87
58662;BME280;44432;49.786;22.760;2023-06-05T01:51:29;99863.54;;;8.92;75.01
58662;BME280;44432;49.786;22.760;2023-06-05T01:54:00;99865.70;;;8.90;75.02
58662;BME280;44432;49.786;22.760;2023-06-05T01:56:31;99865.81;;;8.89;75.32
58662;BME280;44432;49.786;22.760;2023-06-05T01:59:01;99867.87;;;8.89;75.30
58662;BME280;44432;49.786;22.760;2023-06-05T02:01:36;99867.48;;;8.87;75.38
58662;BME280;44432;49.786;22.760;2023-06-05T02:04:07;99870.59;;;8.84;75.41
58662;BME280;44432;49.786;22.760;2023-06-05T02:06:38;99870.90;;;8.83;75.38
58662;BME280;44432;49.786;22.760;2023-06-05T02:09:12;99872.55;;;8.82;75.62
58662;BME280;44432;49.786;22.760;2023-06-05T02:11:44;99872.60;;;8.79;75.48
58662;BME280;44432;49.786;22.760;2023-06-05T02:14:15;99873.48;;;8.78;75.78
58662;BME280;44432;49.786;22.760;2023-06-05T02:16:47;99870.16;;;8.75;75.60
58662;BME280;44432;49.786;22.760;2023-06-05T02:19:18;99870.12;;;8.71;75.76
58662;BME280;44432;49.786;22.760;2023-06-05T02:21:49;99870.05;;;8.69;75.60
58662;BME280;44432;49.786;22.760;2023-06-05T02:24:21;99867.94;;;8.68;75.83
58662;BME280;44432;49.786;22.760;2023-06-05T02:26:52;99867.98;;;8.66;76.07
58662;BME280;44432;49.786;22.760;2023-06-05T02:29:22;99877.38;;;8.65;76.06
58662;BME280;44432;49.786;22.760;2023-06-05T02:31:53;99875.48;;;8.65;75.85
58662;BME280;44432;49.786;22.760;2023-06-05T02:34:24;99875.55;;;8.64;76.08
58662;BME280;44432;49.786;22.760;2023-06-05T02:36:55;99875.55;;;8.64;76.19
58662;BME280;44432;49.786;22.760;2023-06-05T02:39:26;99877.21;;;8.65;76.09
58662;BME280;44432;49.786;22.760;2023-06-05T02:41:56;99874.18;;;8.65;76.25
58662;BME280;44432;49.786;22.760;2023-06-05T02:44:27;99873.20;;;8.65;76.13
58662;BME280;44432;49.786;22.760;2023-06-05T02:46:58;99874.55;;;8.65;76.28
58662;BME280;44432;49.786;22.760;2023-06-05T02:49:29;99874.38;;;8.65;76.31
58662;BME280;44432;49.786;22.760;2023-06-05T02:52:02;99869.93;;;8.66;76.58
58662;BME280;44432;49.786;22.760;2023-06-05T02:54:32;99868.96;;;8.65;76.51
58662;BME280;44432;49.786;22.760;2023-06-05T02:57:03;99867.72;;;8.66;76.20
58662;BME280;44432;49.786;22.760;2023-06-05T02:59:36;99873.33;;;8.68;76.32
58662;BME280;44432;49.786;22.760;2023-06-05T03:02:09;99871.73;;;8.70;76.46
58662;BME280;44432;49.786;22.760;2023-06-05T03:04:40;99878.83;;;8.72;76.55
58662;BME280;44432;49.786;22.760;2023-06-05T03:07:12;99874.77;;;8.73;76.40
58662;BME280;44432;49.786;22.760;2023-06-05T03:09:43;99879.04;;;8.76;76.52
58662;BME280;44432;49.786;22.760;2023-06-05T03:12:13;99881.70;;;8.78;76.61
58662;BME280;44432;49.786;22.760;2023-06-05T03:14:44;99883.20;;;8.82;76.72
58662;BME280;44432;49.786;22.760;2023-06-05T03:17:15;99884.32;;;8.84;76.46
58662;BME280;44432;49.786;22.760;2023-06-05T03:19:45;99886.23;;;8.86;76.58
58662;BME280;44432;49.786;22.760;2023-06-05T03:22:16;99884.77;;;8.90;76.54
58662;BME280;44432;49.786;22.760;2023-06-05T03:24:46;99884.56;;;8.92;76.44
58662;BME280;44432;49.786;22.760;2023-06-05T03:27:17;99883.27;;;8.97;76.26
58662;BME280;44432;49.786;22.760;2023-06-05T03:29:47;99883.84;;;9.01;76.53
58662;BME280;44432;49.786;22.760;2023-06-05T03:32:18;99880.77;;;9.05;76.37
58662;BME280;44432;49.786;22.760;2023-06-05T03:34:49;99880.23;;;9.09;76.38
58662;BME280;44432;49.786;22.760;2023-06-05T03:37:19;99880.27;;;9.13;76.43
58662;BME280;44432;49.786;22.760;2023-06-05T03:39:50;99882.27;;;9.18;76.27
58662;BME280;44432;49.786;22.760;2023-06-05T03:42:21;99882.80;;;9.24;76.14
58662;BME280;44432;49.786;22.760;2023-06-05T03:44:51;99885.05;;;9.29;75.88
58662;BME280;44432;49.786;22.760;2023-06-05T03:47:22;99885.36;;;9.33;75.85
58662;BME280;44432;49.786;22.760;2023-06-05T03:49:53;99885.09;;;9.38;75.70
58662;BME280;44432;49.786;22.760;2023-06-05T03:52:25;99883.88;;;9.42;75.76
58662;BME280;44432;49.786;22.760;2023-06-05T03:54:55;99883.13;;;9.46;75.58
58662;BME280;44432;49.786;22.760;2023-06-05T03:57:26;99887.31;;;9.51;75.71
58662;BME280;44432;49.786;22.760;2023-06-05T03:59:58;99885.09;;;9.56;75.34
58662;BME280;44432;49.786;22.760;2023-06-05T04:02:28;99881.77;;;9.62;75.39
58662;BME280;44432;49.786;22.760;2023-06-05T04:04:59;99882.98;;;9.67;75.41
58662;BME280;44432;49.786;22.760;2023-06-05T04:07:30;99883.71;;;9.73;75.35
58662;BME280;44432;49.786;22.760;2023-06-05T04:10:00;99884.98;;;9.79;75.38
58662;BME280;44432;49.786;22.760;2023-06-05T04:12:32;99889.48;;;9.87;75.19
58662;BME280;44432;49.786;22.760;2023-06-05T04:15:03;99889.61;;;9.93;75.03
58662;BME280;44432;49.786;22.760;2023-06-05T04:17:34;99889.02;;;10.02;74.89
58662;BME280;44432;49.786;22.760;2023-06-05T04:20:08;99890.20;;;10.09;74.96
58662;BME280;44432;49.786;22.760;2023-06-05T04:22:43;99890.54;;;10.17;74.86
58662;BME280;44432;49.786;22.760;2023-06-05T04:25:14;99889.36;;;10.27;74.78
58662;BME280;44432;49.786;22.760;2023-06-05T04:27:48;99889.08;;;10.36;74.62
58662;BME280;44432;49.786;22.760;2023-06-05T04:30:19;99892.30;;;10.45;74.50
58662;BME280;44432;49.786;22.760;2023-06-05T04:32:50;99893.39;;;10.54;74.33
58662;BME280;44432;49.786;22.760;2023-06-05T04:35:23;99896.67;;;10.64;74.13
58662;BME280;44432;49.786;22.760;2023-06-05T04:37:54;99896.10;;;10.74;73.90
58662;BME280;44432;49.786;22.760;2023-06-05T04:40:26;99892.16;;;10.82;73.64
58662;BME280;44432;49.786;22.760;2023-06-05T04:42:57;99894.85;;;10.90;73.47
58662;BME280;44432;49.786;22.760;2023-06-05T04:45:27;99893.34;;;10.99;73.44
58662;BME280;44432;49.786;22.760;2023-06-05T04:47:58;99897.54;;;11.09;73.34
58662;BME280;44432;49.786;22.760;2023-06-05T04:50:29;99895.27;;;11.16;73.26
58662;BME280;44432;49.786;22.760;2023-06-05T04:53:00;99896.52;;;11.23;72.92
58662;BME280;44432;49.786;22.760;2023-06-05T04:55:31;99900.66;;;11.31;72.92
58662;BME280;44432;49.786;22.760;2023-06-05T04:58:01;99894.57;;;11.39;72.46
58662;BME280;44432;49.786;22.760;2023-06-05T05:00:33;99900.36;;;11.49;72.68
58662;BME280;44432;49.786;22.760;2023-06-05T05:03:04;99895.11;;;11.57;72.40
58662;BME280;44432;49.786;22.760;2023-06-05T05:05:35;99894.10;;;11.65;72.44
58662;BME280;44432;49.786;22.760;2023-06-05T05:08:06;99898.05;;;11.73;72.19
58662;BME280;44432;49.786;22.760;2023-06-05T05:10:36;99898.52;;;11.82;72.19
58662;BME280;44432;49.786;22.760;2023-06-05T05:13:07;99902.37;;;11.92;72.14
58662;BME280;44432;49.786;22.760;2023-06-05T05:15:38;99899.51;;;12.01;72.19
58662;BME280;44432;49.786;22.760;2023-06-05T05:18:09;99897.90;;;12.11;71.83
58662;BME280;44432;49.786;22.760;2023-06-05T05:20:39;99894.17;;;12.22;71.89
58662;BME280;44432;49.786;22.760;2023-06-05T05:23:10;99895.92;;;12.34;71.68
58662;BME280;44432;49.786;22.760;2023-06-05T05:25:41;99893.83;;;12.44;71.38
58662;BME280;44432;49.786;22.760;2023-06-05T05:28:12;99891.66;;;12.57;71.41
58662;BME280;44432;49.786;22.760;2023-06-05T05:30:42;99890.83;;;12.70;70.95
58662;BME280;44432;49.786;22.760;2023-06-05T05:33:13;99892.30;;;12.84;70.82
58662;BME280;44432;49.786;22.760;2023-06-05T05:35:45;99889.95;;;12.97;70.66
58662;BME280;44432;49.786;22.760;2023-06-05T05:38:16;99887.59;;;13.10;70.48
58662;BME280;44432;49.786;22.760;2023-06-05T05:40:46;99889.93;;;13.26;70.23
58662;BME280;44432;49.786;22.760;2023-06-05T05:43:17;99886.98;;;13.39;69.90
58662;BME280;44432;49.786;22.760;2023-06-05T05:45:48;99887.14;;;13.52;69.59
58662;BME280;44432;49.786;22.760;2023-06-05T05:48:18;99885.17;;;13.66;69.40
58662;BME280;44432;49.786;22.760;2023-06-05T05:50:49;99886.95;;;13.81;69.17
58662;BME280;44432;49.786;22.760;2023-06-05T05:53:20;99885.52;;;13.96;68.54
58662;BME280;44432;49.786;22.760;2023-06-05T05:55:50;99888.39;;;14.10;67.94
58662;BME280;44432;49.786;22.760;2023-06-05T05:58:21;99883.23;;;14.23;67.20
58662;BME280;44432;49.786;22.760;2023-06-05T06:00:52;99884.30;;;14.37;66.84
58662;BME280;44432;49.786;22.760;2023-06-05T06:03:22;99883.25;;;14.52;66.45
58662;BME280;44432;49.786;22.760;2023-06-05T06:05:54;99885.38;;;14.66;66.04
58662;BME280;44432;49.786;22.760;2023-06-05T06:08:25;99885.98;;;14.83;65.76
58662;BME280;44432;49.786;22.760;2023-06-05T06:10:56;99882.83;;;14.98;65.49
58662;BME280;44432;49.786;22.760;2023-06-05T06:13:27;99886.71;;;15.13;65.22
58662;BME280;44432;49.786;22.760;2023-06-05T06:15:58;99887.95;;;15.25;64.98
58662;BME280;44432;49.786;22.760;2023-06-05T06:18:28;99886.29;;;15.40;64.51
58662;BME280;44432;49.786;22.760;2023-06-05T06:20:59;99886.16;;;15.54;64.09
58662;BME280;44432;49.786;22.760;2023-06-05T06:23:30;99883.85;;;15.67;63.76
58662;BME280;44432;49.786;22.760;2023-06-05T06:26:01;99885.66;;;15.81;63.26
58662;BME280;44432;49.786;22.760;2023-06-05T06:28:35;99879.17;;;15.95;62.57
58662;BME280;44432;49.786;22.760;2023-06-05T06:31:06;99882.27;;;16.10;61.91
58662;BME280;44432;49.786;22.760;2023-06-05T06:33:36;99878.93;;;16.24;61.19
58662;BME280;44432;49.786;22.760;2023-06-05T06:36:07;99873.94;;;16.38;60.51
58662;BME280;44432;49.786;22.760;2023-06-05T06:38:38;99875.12;;;16.51;59.92
58662;BME280;44432;49.786;22.760;2023-06-05T06:41:09;99872.99;;;16.62;59.35
58662;BME280;44432;49.786;22.760;2023-06-05T06:43:39;99870.94;;;16.74;58.81
58662;BME280;44432;49.786;22.760;2023-06-05T06:46:10;99865.96;;;16.85;58.48
58662;BME280;44432;49.786;22.760;2023-06-05T06:48:41;99868.55;;;16.98;58.22
58662;BME280;44432;49.786;22.760;2023-06-05T06:51:11;99868.80;;;17.13;57.70
58662;BME280;44432;49.786;22.760;2023-06-05T06:53:42;99861.17;;;17.25;56.96
58662;BME280;44432;49.786;22.760;2023-06-05T06:56:13;99864.55;;;17.40;56.58
58662;BME280;44432;49.786;22.760;2023-06-05T06:58:45;99866.94;;;17.51;56.18
58662;BME280;44432;49.786;22.760;2023-06-05T07:01:16;99866.11;;;17.63;55.75
58662;BME280;44432;49.786;22.760;2023-06-05T07:03:49;99862.86;;;17.75;55.23
58662;BME280;44432;49.786;22.760;2023-06-05T07:06:20;99858.94;;;17.85;54.93
58662;BME280;44432;49.786;22.760;2023-06-05T07:08:54;99859.88;;;17.94;54.62
58662;BME280;44432;49.786;22.760;2023-06-05T07:11:24;99861.02;;;18.04;54.22
58662;BME280;44432;49.786;22.760;2023-06-05T07:13:55;99861.00;;;18.14;54.00
58662;BME280;44432;49.786;22.760;2023-06-05T07:16:26;99862.92;;;18.21;53.50
58662;BME280;44432;49.786;22.760;2023-06-05T07:18:56;99862.26;;;18.28;53.39
58662;BME280;44432;49.786;22.760;2023-06-05T07:21:27;99861.23;;;18.36;53.43
58662;BME280;44432;49.786;22.760;2023-06-05T07:23:58;99861.23;;;18.45;53.20
58662;BME280;44432;49.786;22.760;2023-06-05T07:26:29;99863.42;;;18.54;52.98
58662;BME280;44432;49.786;22.760;2023-06-05T07:29:01;99855.92;;;18.66;52.73
58662;BME280;44432;49.786;22.760;2023-06-05T07:31:32;99850.30;;;18.77;52.51
58662;BME280;44432;49.786;22.760;2023-06-05T07:34:03;99852.83;;;18.88;52.04
58662;BME280;44432;49.786;22.760;2023-06-05T07:36:34;99850.45;;;18.97;51.86
58662;BME280;44432;49.786;22.760;2023-06-05T07:39:05;99847.13;;;19.09;51.49
58662;BME280;44432;49.786;22.760;2023-06-05T07:41:36;99849.75;;;19.21;51.15
58662;BME280;44432;49.786;22.760;2023-06-05T07:44:07;99850.61;;;19.33;51.00
58662;BME280;44432;49.786;22.760;2023-06-05T07:46:37;99851.55;;;19.45;50.63
58662;BME280;44432;49.786;22.760;2023-06-05T07:49:09;99847.66;;;19.57;50.37
58662;BME280;44432;49.786;22.760;2023-06-05T07:51:40;99846.36;;;19.71;50.09
58662;BME280;44432;49.786;22.760;2023-06-05T07:54:12;99845.33;;;19.84;50.08
58662;BME280;44432;49.786;22.760;2023-06-05T07:56:45;99847.50;;;19.98;49.53
58662;BME280;44432;49.786;22.760;2023-06-05T07:59:18;99850.36;;;20.09;49.11
58662;BME280;44432;49.786;22.760;2023-06-05T08:01:54;99842.84;;;20.17;48.74
58662;BME280;44432;49.786;22.760;2023-06-05T08:04:25;99845.02;;;20.27;48.42
58662;BME280;44432;49.786;22.760;2023-06-05T08:06:56;99840.90;;;20.38;48.00
58662;BME280;44432;49.786;22.760;2023-06-05T08:09:27;99841.33;;;20.51;47.47
58662;BME280;44432;49.786;22.760;2023-06-05T08:11:58;99838.63;;;20.63;46.73
58662;BME280;44432;49.786;22.760;2023-06-05T08:14:28;99835.75;;;20.72;46.46
58662;BME280;44432;49.786;22.760;2023-06-05T08:16:59;99829.90;;;20.81;46.02
58662;BME280;44432;49.786;22.760;2023-06-05T08:19:30;99835.53;;;20.88;45.79
58662;BME280;44432;49.786;22.760;2023-06-05T08:22:00;99833.55;;;20.97;45.39
58662;BME280;44432;49.786;22.760;2023-06-05T08:24:32;99836.03;;;21.09;44.59
58662;BME280;44432;49.786;22.760;2023-06-05T08:27:03;99831.59;;;21.18;43.27
58662;BME280;44432;49.786;22.760;2023-06-05T08:29:34;99831.02;;;21.27;42.56
58662;BME280;44432;49.786;22.760;2023-06-05T08:32:07;99830.54;;;21.38;42.48
58662;BME280;44432;49.786;22.760;2023-06-05T08:34:38;99826.49;;;21.50;42.16
58662;BME280;44432;49.786;22.760;2023-06-05T08:37:08;99828.09;;;21.62;41.44
58662;BME280;44432;49.786;22.760;2023-06-05T08:39:39;99822.48;;;21.72;41.16
58662;BME280;44432;49.786;22.760;2023-06-05T08:42:10;99820.64;;;21.77;40.60
58662;BME280;44432;49.786;22.760;2023-06-05T08:44:44;99822.31;;;21.87;40.13
58662;BME280;44432;49.786;22.760;2023-06-05T08:47:16;99823.52;;;21.95;39.12
58662;BME280;44432;49.786;22.760;2023-06-05T08:49:47;99821.25;;;22.00;38.21
58662;BME280;44432;49.786;22.760;2023-06-05T08:52:23;99819.70;;;22.03;37.75
58662;BME280;44432;49.786;22.760;2023-06-05T08:54:55;99820.76;;;22.10;37.47
58662;BME280;44432;49.786;22.760;2023-06-05T08:57:28;99818.23;;;22.13;36.58
58662;BME280;44432;49.786;22.760;2023-06-05T08:59:59;99817.63;;;22.14;36.52
58662;BME280;44432;49.786;22.760;2023-06-05T09:02:36;99812.46;;;22.13;35.61
58662;BME280;44432;49.786;22.760;2023-06-05T09:05:08;99820.83;;;22.04;35.53
58662;BME280;44432;49.786;22.760;2023-06-05T09:07:39;99816.63;;;22.02;35.59
58662;BME280;44432;49.786;22.760;2023-06-05T09:10:23;99810.77;;;22.05;35.82
58662;BME280;44432;49.786;22.760;2023-06-05T09:12:58;99811.22;;;22.15;35.99
58662;BME280;44432;49.786;22.760;2023-06-05T09:15:30;99812.67;;;22.27;35.46
58662;BME280;44432;49.786;22.760;2023-06-05T09:18:06;99809.47;;;22.32;35.15
58662;BME280;44432;49.786;22.760;2023-06-05T09:20:39;99812.09;;;22.36;34.67
58662;BME280;44432;49.786;22.760;2023-06-05T09:23:26;99808.05;;;22.38;34.50
58662;BME280;44432;49.786;22.760;2023-06-05T09:25:59;99806.67;;;22.42;34.51
58662;BME280;44432;49.786;22.760;2023-06-05T09:28:31;99809.34;;;22.48;34.27
58662;BME280;44432;49.786;22.760;2023-06-05T09:31:02;99809.14;;;22.55;34.46
58662;BME280;44432;49.786;22.760;2023-06-05T09:33:34;99809.08;;;22.66;34.42
58662;BME280;44432;49.786;22.760;2023-06-05T09:36:06;99809.43;;;22.78;34.46
58662;BME280;44432;49.786;22.760;2023-06-05T09:38:36;99808.17;;;22.89;34.40
58662;BME280;44432;49.786;22.760;2023-06-05T09:41:08;99806.70;;;22.98;34.21
58662;BME280;44432;49.786;22.760;2023-06-05T09:43:40;99806.23;;;23.03;33.72
58662;BME280;44432;49.786;22.760;2023-06-05T09:46:12;99805.11;;;23.07;33.71
58662;BME280;44432;49.786;22.760;2023-06-05T09:48:50;99809.21;;;23.13;33.50
58662;BME280;44432;49.786;22.760;2023-06-05T09:51:24;99804.30;;;23.14;32.91
58662;BME280;44432;49.786;22.760;2023-06-05T09:53:55;99798.32;;;23.14;32.69
58662;BME280;44432;49.786;22.760;2023-06-05T09:56:27;99802.51;;;23.16;32.40
58662;BME280;44432;49.786;22.760;2023-06-05T09:58:58;99798.56;;;23.17;32.02
58662;BME280;44432;49.786;22.760;2023-06-05T10:01:30;99795.00;;;23.19;31.80
58662;BME280;44432;49.786;22.760;2023-06-05T10:04:05;99792.05;;;23.17;31.70
58662;BME280;44432;49.786;22.760;2023-06-05T10:06:37;99786.55;;;23.10;32.00
58662;BME280;44432;49.786;22.760;2023-06-05T10:09:09;99788.14;;;23.14;32.15
58662;BME280;44432;49.786;22.760;2023-06-05T10:11:42;99787.98;;;23.21;31.88
58662;BME280;44432;49.786;22.760;2023-06-05T10:14:13;99785.15;;;23.24;31.59
58662;BME280;44432;49.786;22.760;2023-06-05T10:16:44;99781.85;;;23.19;31.61
58662;BME280;44432;49.786;22.760;2023-06-05T10:19:19;99783.66;;;23.22;31.68
58662;BME280;44432;49.786;22.760;2023-06-05T10:21:50;99778.42;;;23.28;31.92
58662;BME280;44432;49.786;22.760;2023-06-05T10:24:23;99777.88;;;23.36;32.12
58662;BME280;44432;49.786;22.760;2023-06-05T10:27:23;99770.89;;;23.44;31.93
58662;BME280;44432;49.786;22.760;2023-06-05T10:33:02;99774.33;;;23.59;31.85
58662;BME280;44432;49.786;22.760;2023-06-05T10:35:47;99773.04;;;23.64;31.28
58662;BME280;44432;49.786;22.760;2023-06-05T10:38:22;99769.67;;;23.60;30.87
58662;BME280;44432;49.786;22.760;2023-06-05T10:40:55;99768.42;;;23.61;30.97
58662;BME280;44432;49.786;22.760;2023-06-05T10:43:27;99770.39;;;23.63;30.92
58662;BME280;44432;49.786;22.760;2023-06-05T10:45:59;99764.52;;;23.69;31.04
58662;BME280;44432;49.786;22.760;2023-06-05T10:49:07;99763.50;;;23.77;31.19
58662;BME280;44432;49.786;22.760;2023-06-05T10:51:39;99765.73;;;23.89;31.24
58662;BME280;44432;49.786;22.760;2023-06-05T10:54:12;99764.23;;;23.95;31.02
58662;BME280;44432;49.786;22.760;2023-06-05T10:57:02;99766.29;;;23.99;30.62
58662;BME280;44432;49.786;22.760;2023-06-05T10:59:36;99762.61;;;23.92;30.22
58662;BME280;44432;49.786;22.760;2023-06-05T11:02:26;99757.50;;;23.83;30.35
58662;BME280;44432;49.786;22.760;2023-06-05T11:05:10;99755.77;;;23.78;30.39
58662;BME280;44432;49.786;22.760;2023-06-05T11:07:41;99757.18;;;23.73;30.49
58662;BME280;44432;49.786;22.760;2023-06-05T11:10:16;99755.13;;;23.69;30.53
58662;BME280;44432;49.786;22.760;2023-06-05T11:13:03;99751.09;;;23.73;30.63
58662;BME280;44432;49.786;22.760;2023-06-05T11:15:39;99752.83;;;23.81;30.26
58662;BME280;44432;49.786;22.760;2023-06-05T11:18:28;99751.48;;;23.82;29.99
58662;BME280;44432;49.786;22.760;2023-06-05T11:21:00;99754.30;;;23.85;29.99
58662;BME280;44432;49.786;22.760;2023-06-05T11:23:31;99750.70;;;23.92;30.13
58662;BME280;44432;49.786;22.760;2023-06-05T11:29:03;99749.02;;;24.12;30.18
58662;BME280;44432;49.786;22.760;2023-06-05T11:31:40;99745.28;;;24.17;29.78
58662;BME280;44432;49.786;22.760;2023-06-05T11:34:13;99742.21;;;24.20;29.82
58662;BME280;44432;49.786;22.760;2023-06-05T11:36:44;99740.08;;;24.23;29.35
58662;BME280;44432;49.786;22.760;2023-06-05T11:39:15;99735.20;;;24.25;29.68
58662;BME280;44432;49.786;22.760;2023-06-05T11:41:50;99737.73;;;24.34;29.74
58662;BME280;44432;49.786;22.760;2023-06-05T11:44:33;99734.63;;;24.47;29.85
58662;BME280;44432;49.786;22.760;2023-06-05T11:47:05;99736.41;;;24.58;29.48
58662;BME280;44432;49.786;22.760;2023-06-05T11:49:36;99732.56;;;24.66;29.54
58662;BME280;44432;49.786;22.760;2023-06-05T11:52:07;99733.23;;;24.77;29.51
58662;BME280;44432;49.786;22.760;2023-06-05T11:54:47;99729.61;;;24.88;29.50
58662;BME280;44432;49.786;22.760;2023-06-05T11:57:42;99727.91;;;24.95;29.35
58662;BME280;44432;49.786;22.760;2023-06-05T12:00:15;99724.29;;;24.99;29.30
58662;BME280;44432;49.786;22.760;2023-06-05T12:02:47;99727.02;;;25.04;29.53
58662;BME280;44432;49.786;22.760;2023-06-05T12:05:18;99726.10;;;25.13;29.72
58662;BME280;44432;49.786;22.760;2023-06-05T12:07:48;99722.64;;;25.22;29.60
58662;BME280;44432;49.786;22.760;2023-06-05T12:10:20;99720.59;;;25.30;29.35
58662;BME280;44432;49.786;22.760;2023-06-05T12:13:03;99720.20;;;25.39;28.92
58662;BME280;44432;49.786;22.760;2023-06-05T12:15:34;99719.17;;;25.40;28.95
58662;BME280;44432;49.786;22.760;2023-06-05T12:18:05;99709.58;;;25.47;29.29
58662;BME280;44432;49.786;22.760;2023-06-05T12:20:40;99705.97;;;25.60;28.95
58662;BME280;44432;49.786;22.760;2023-06-05T12:23:19;99703.08;;;25.68;28.77
58662;BME280;44432;49.786;22.760;2023-06-05T12:26:00;99701.56;;;25.76;28.59
58662;BME280;44432;49.786;22.760;2023-06-05T12:28:32;99698.80;;;25.82;28.65
58662;BME280;44432;49.786;22.760;2023-06-05T12:31:03;99698.90;;;25.89;28.72
58662;BME280;44432;49.786;22.760;2023-06-05T12:33:35;99699.56;;;25.98;28.26
58662;BME280;44432;49.786;22.760;2023-06-05T12:36:15;99692.46;;;26.00;27.82
58662;BME280;44432;49.786;22.760;2023-06-05T12:38:46;99692.48;;;26.01;27.71
58662;BME280;44432;49.786;22.760;2023-06-05T12:41:17;99688.92;;;26.03;27.58
58662;BME280;44432;49.786;22.760;2023-06-05T12:43:59;99687.36;;;26.11;27.73
58662;BME280;44432;49.786;22.760;2023-06-05T12:46:31;99687.04;;;26.25;27.79
58662;BME280;44432;49.786;22.760;2023-06-05T12:49:03;99686.02;;;26.31;27.64
58662;BME280;44432;49.786;22.760;2023-06-05T12:51:34;99688.23;;;26.38;27.62
58662;BME280;44432;49.786;22.760;2023-06-05T12:54:05;99677.91;;;26.39;27.01
58662;BME280;44432;49.786;22.760;2023-06-05T12:56:36;99678.03;;;26.34;27.21
58662;BME280;44432;49.786;22.760;2023-06-05T12:59:08;99671.86;;;26.39;27.29
58662;BME280;44432;49.786;22.760;2023-06-05T13:01:38;99669.86;;;26.38;27.13
58662;BME280;44432;49.786;22.760;2023-06-05T13:04:09;99670.51;;;26.36;27.08
58662;BME280;44432;49.786;22.760;2023-06-05T13:06:41;99666.77;;;26.36;27.39
58662;BME280;44432;49.786;22.760;2023-06-05T13:09:12;99665.46;;;26.39;27.38
58662;BME280;44432;49.786;22.760;2023-06-05T13:11:43;99658.36;;;26.39;27.24
58662;BME280;44432;49.786;22.760;2023-06-05T13:14:14;99658.27;;;26.34;27.41
58662;BME280;44432;49.786;22.760;2023-06-05T13:16:45;99654.97;;;26.31;27.16
58662;BME280;44432;49.786;22.760;2023-06-05T13:19:16;99658.06;;;26.30;27.52
58662;BME280;44432;49.786;22.760;2023-06-05T13:21:46;99653.48;;;26.27;27.45
58662;BME280;44432;49.786;22.760;2023-06-05T13:24:17;99654.94;;;26.25;27.19
58662;BME280;44432;49.786;22.760;2023-06-05T13:26:48;99652.23;;;26.23;27.09